sensor_id;sensor_type;location;lat;lon;timestamp;P1;durP1;ratioP1;P2;durP2;ratioP2
17504;SDS011;8870;50.950;11.762;2024-02-26T00:01:43;7.20;;;6.50;;
17504;SDS011;8870;50.950;11.762;2024-02-26T00:07:04;6.85;;;6.15;;
17504;SDS011;8870;50.950;11.762;2024-02-26T00:12:35;6.53;;;5.93;;
17504;SDS011;8870;50.950;11.762;2024-02-26T00:17:54;6.97;;;6.28;;
17504;SDS011;8870;50.950;11.762;2024-02-26T00:28:51;6.57;;;5.60;;
17504;SDS011;8870;50.950;11.762;2024-02-26T00:34:21;8.20;;;5.93;;
17504;SDS011;8870;50.950;11.762;2024-02-26T00:39:55;7.55;;;6.85;;
17504;SDS011;8870;50.950;11.762;2024-02-26T00:45:14;7.47;;;6.68;;
17504;SDS011;8870;50.950;11.762;2024-02-26T00:56:01;10.80;;;9.23;;
17504;SDS011;8870;50.950;11.762;2024-02-26T01:01:32;11.63;;;10.40;;
17504;SDS011;8870;50.950;11.762;2024-02-26T01:06:54;12.48;;;11.27;;
17504;SDS011;8870;50.950;11.762;2024-02-26T01:12:27;14.43;;;12.93;;
17504;SDS011;8870;50.950;11.762;2024-02-26T01:17:47;13.27;;;11.82;;
17504;SDS011;8870;50.950;11.762;2024-02-26T01:23:17;13.50;;;12.07;;
17504;SDS011;8870;50.950;11.762;2024-02-26T01:28:38;12.68;;;11.38;;
17504;SDS011;8870;50.950;11.762;2024-02-26T01:34:09;14.07;;;12.27;;
17504;SDS011;8870;50.950;11.762;2024-02-26T01:39:41;12.27;;;10.98;;
17504;SDS011;8870;50.950;11.762;2024-02-26T01:45:02;12.15;;;10.63;;
17504;SDS011;8870;50.950;11.762;2024-02-26T01:50:38;10.73;;;9.73;;
17504;SDS011;8870;50.950;11.762;2024-02-26T01:55:59;14.00;;;11.23;;
17504;SDS011;8870;50.950;11.762;2024-02-26T02:01:33;13.77;;;12.38;;
17504;SDS011;8870;50.950;11.762;2024-02-26T02:06:53;14.63;;;13.13;;
17504;SDS011;8870;50.950;11.762;2024-02-26T02:12:24;19.13;;;14.65;;
17504;SDS011;8870;50.950;11.762;2024-02-26T02:17:45;15.40;;;13.77;;
17504;SDS011;8870;50.950;11.762;2024-02-26T02:23:20;13.77;;;12.38;;
17504;SDS011;8870;50.950;11.762;2024-02-26T02:28:39;12.57;;;11.27;;
17504;SDS011;8870;50.950;11.762;2024-02-26T02:34:10;11.57;;;10.38;;
17504;SDS011;8870;50.950;11.762;2024-02-26T02:39:32;15.93;;;13.57;;
17504;SDS011;8870;50.950;11.762;2024-02-26T02:45:05;15.55;;;13.35;;
17504;SDS011;8870;50.950;11.762;2024-02-26T02:50:25;17.48;;;15.55;;
17504;SDS011;8870;50.950;11.762;2024-02-26T02:55:59;18.67;;;16.60;;
17504;SDS011;8870;50.950;11.762;2024-02-26T03:01:18;19.42;;;17.33;;
17504;SDS011;8870;50.950;11.762;2024-02-26T03:06:49;17.75;;;15.85;;
17504;SDS011;8870;50.950;11.762;2024-02-26T03:12:13;19.83;;;16.48;;
17504;SDS011;8870;50.950;11.762;2024-02-26T03:17:45;17.05;;;15.25;;
17504;SDS011;8870;50.950;11.762;2024-02-26T03:23:03;17.05;;;14.73;;
17504;SDS011;8870;50.950;11.762;2024-02-26T03:28:39;16.98;;;15.18;;
17504;SDS011;8870;50.950;11.762;2024-02-26T03:33:58;16.20;;;14.50;;
17504;SDS011;8870;50.950;11.762;2024-02-26T03:39:28;16.80;;;14.25;;
17504;SDS011;8870;50.950;11.762;2024-02-26T03:44:49;15.25;;;12.68;;
17504;SDS011;8870;50.950;11.762;2024-02-26T03:50:20;14.43;;;12.40;;
17504;SDS011;8870;50.950;11.762;2024-02-26T03:55:39;14.48;;;12.05;;
17504;SDS011;8870;50.950;11.762;2024-02-26T04:01:13;13.80;;;12.38;;
17504;SDS011;8870;50.950;11.762;2024-02-26T04:06:32;15.90;;;13.07;;
17504;SDS011;8870;50.950;11.762;2024-02-26T04:12:03;18.05;;;14.55;;
17504;SDS011;8870;50.950;11.762;2024-02-26T04:17:24;16.30;;;14.60;;
17504;SDS011;8870;50.950;11.762;2024-02-26T04:22:57;18.40;;;16.30;;
17504;SDS011;8870;50.950;11.762;2024-02-26T04:28:15;20.08;;;16.98;;
17504;SDS011;8870;50.950;11.762;2024-02-26T04:33:49;19.52;;;16.35;;
17504;SDS011;8870;50.950;11.762;2024-02-26T04:39:08;19.58;;;17.30;;
17504;SDS011;8870;50.950;11.762;2024-02-26T04:44:38;18.63;;;16.60;;
17504;SDS011;8870;50.950;11.762;2024-02-26T04:49:59;21.17;;;17.88;;
17504;SDS011;8870;50.950;11.762;2024-02-26T04:55:31;24.05;;;20.98;;
17504;SDS011;8870;50.950;11.762;2024-02-26T05:00:49;29.75;;;24.77;;
17504;SDS011;8870;50.950;11.762;2024-02-26T05:06:23;31.45;;;25.35;;
17504;SDS011;8870;50.950;11.762;2024-02-26T05:11:42;28.17;;;23.35;;
17504;SDS011;8870;50.950;11.762;2024-02-26T05:17:13;27.65;;;21.83;;
17504;SDS011;8870;50.950;11.762;2024-02-26T05:22:35;25.85;;;22.33;;
17504;SDS011;8870;50.950;11.762;2024-02-26T05:28:08;23.65;;;20.85;;
17504;SDS011;8870;50.950;11.762;2024-02-26T05:33:33;25.67;;;21.50;;
17504;SDS011;8870;50.950;11.762;2024-02-26T05:39:07;27.98;;;23.25;;
17504;SDS011;8870;50.950;11.762;2024-02-26T05:44:28;27.70;;;23.10;;
17504;SDS011;8870;50.950;11.762;2024-02-26T05:50:00;24.77;;;21.17;;
17504;SDS011;8870;50.950;11.762;2024-02-26T05:55:20;24.13;;;20.48;;
17504;SDS011;8870;50.950;11.762;2024-02-26T06:00:52;22.67;;;20.20;;
17504;SDS011;8870;50.950;11.762;2024-02-26T06:06:10;21.05;;;18.75;;
17504;SDS011;8870;50.950;11.762;2024-02-26T06:11:43;21.30;;;18.25;;
17504;SDS011;8870;50.950;11.762;2024-02-26T06:17:02;21.48;;;18.98;;
17504;SDS011;8870;50.950;11.762;2024-02-26T06:22:33;20.95;;;18.10;;
17504;SDS011;8870;50.950;11.762;2024-02-26T06:27:53;20.17;;;17.95;;
17504;SDS011;8870;50.950;11.762;2024-02-26T06:33:25;20.70;;;18.10;;
17504;SDS011;8870;50.950;11.762;2024-02-26T06:38:43;20.60;;;18.40;;
17504;SDS011;8870;50.950;11.762;2024-02-26T06:44:18;22.17;;;19.65;;
17504;SDS011;8870;50.950;11.762;2024-02-26T06:49:37;22.35;;;19.67;;
17504;SDS011;8870;50.950;11.762;2024-02-26T06:55:09;22.02;;;19.50;;
17504;SDS011;8870;50.950;11.762;2024-02-26T07:00:30;23.45;;;20.88;;
17504;SDS011;8870;50.950;11.762;2024-02-26T07:06:02;25.45;;;21.92;;
17504;SDS011;8870;50.950;11.762;2024-02-26T07:11:21;24.35;;;21.73;;
17504;SDS011;8870;50.950;11.762;2024-02-26T07:16:54;25.17;;;21.65;;
17504;SDS011;8870;50.950;11.762;2024-02-26T07:22:13;24.23;;;20.63;;
17504;SDS011;8870;50.950;11.762;2024-02-26T07:27:44;19.65;;;17.55;;
17504;SDS011;8870;50.950;11.762;2024-02-26T07:33:04;18.35;;;16.45;;
17504;SDS011;8870;50.950;11.762;2024-02-26T07:38:36;14.35;;;12.85;;
17504;SDS011;8870;50.950;11.762;2024-02-26T07:44:07;14.68;;;13.18;;
17504;SDS011;8870;50.950;11.762;2024-02-26T07:49:27;14.95;;;13.20;;
17504;SDS011;8870;50.950;11.762;2024-02-26T07:54:59;15.55;;;13.18;;
17504;SDS011;8870;50.950;11.762;2024-02-26T08:00:17;15.98;;;14.38;;
17504;SDS011;8870;50.950;11.762;2024-02-26T08:05:51;17.20;;;15.32;;
17504;SDS011;8870;50.950;11.762;2024-02-26T08:11:10;15.10;;;13.38;;
17504;SDS011;8870;50.950;11.762;2024-02-26T08:16:41;16.30;;;13.93;;
17504;SDS011;8870;50.950;11.762;2024-02-26T08:22:01;16.17;;;13.85;;
17504;SDS011;8870;50.950;11.762;2024-02-26T08:27:38;17.83;;;15.93;;
17504;SDS011;8870;50.950;11.762;2024-02-26T08:32:56;19.23;;;17.23;;
17504;SDS011;8870;50.950;11.762;2024-02-26T08:38:29;17.52;;;15.68;;
17504;SDS011;8870;50.950;11.762;2024-02-26T08:43:49;17.30;;;15.38;;
17504;SDS011;8870;50.950;11.762;2024-02-26T08:49:20;16.30;;;14.55;;
17504;SDS011;8870;50.950;11.762;2024-02-26T08:54:40;16.60;;;14.90;;
17504;SDS011;8870;50.950;11.762;2024-02-26T09:00:12;16.98;;;15.20;;
17504;SDS011;8870;50.950;11.762;2024-02-26T09:05:32;15.32;;;13.73;;
17504;SDS011;8870;50.950;11.762;2024-02-26T09:11:05;15.98;;;14.15;;
17504;SDS011;8870;50.950;11.762;2024-02-26T09:16:25;15.82;;;14.23;;
17504;SDS011;8870;50.950;11.762;2024-02-26T09:21:56;17.15;;;15.05;;
17504;SDS011;8870;50.950;11.762;2024-02-26T09:27:16;17.02;;;15.23;;
17504;SDS011;8870;50.950;11.762;2024-02-26T09:32:48;17.02;;;15.23;;
17504;SDS011;8870;50.950;11.762;2024-02-26T09:38:06;16.55;;;14.80;;
17504;SDS011;8870;50.950;11.762;2024-02-26T09:43:39;16.38;;;14.77;;
17504;SDS011;8870;50.950;11.762;2024-02-26T09:49:08;16.58;;;13.35;;
17504;SDS011;8870;50.950;11.762;2024-02-26T09:54:40;14.45;;;12.93;;
17504;SDS011;8870;50.950;11.762;2024-02-26T10:00:02;13.52;;;12.13;;
17504;SDS011;8870;50.950;11.762;2024-02-26T10:05:35;14.75;;;13.25;;
17504;SDS011;8870;50.950;11.762;2024-02-26T10:10:55;14.13;;;12.55;;
17504;SDS011;8870;50.950;11.762;2024-02-26T10:16:30;14.07;;;12.48;;
17504;SDS011;8870;50.950;11.762;2024-02-26T10:21:52;13.23;;;11.93;;
17504;SDS011;8870;50.950;11.762;2024-02-26T10:27:28;12.70;;;11.40;;
17504;SDS011;8870;50.950;11.762;2024-02-26T10:32:49;12.38;;;10.95;;
17504;SDS011;8870;50.950;11.762;2024-02-26T10:38:22;12.65;;;11.30;;
17504;SDS011;8870;50.950;11.762;2024-02-26T10:43:41;13.65;;;12.25;;
17504;SDS011;8870;50.950;11.762;2024-02-26T10:49:16;14.30;;;11.43;;
17504;SDS011;8870;50.950;11.762;2024-02-26T10:54:48;9.70;;;8.70;;
17504;SDS011;8870;50.950;11.762;2024-02-26T11:00:10;12.82;;;8.80;;
17504;SDS011;8870;50.950;11.762;2024-02-26T11:05:49;12.90;;;8.57;;
17504;SDS011;8870;50.950;11.762;2024-02-26T11:11:07;9.93;;;7.95;;
17504;SDS011;8870;50.950;11.762;2024-02-26T11:16:39;8.85;;;7.95;;
17504;SDS011;8870;50.950;11.762;2024-02-26T11:22:00;11.05;;;8.00;;
17504;SDS011;8870;50.950;11.762;2024-02-26T11:27:39;11.10;;;8.50;;
17504;SDS011;8870;50.950;11.762;2024-02-26T11:33:01;9.68;;;8.65;;
17504;SDS011;8870;50.950;11.762;2024-02-26T11:38:36;9.55;;;8.57;;
17504;SDS011;8870;50.950;11.762;2024-02-26T11:43:57;9.93;;;8.70;;
17504;SDS011;8870;50.950;11.762;2024-02-26T11:49:30;9.88;;;8.60;;
17504;SDS011;8870;50.950;11.762;2024-02-26T11:55:05;9.40;;;8.32;;
17504;SDS011;8870;50.950;11.762;2024-02-26T12:00:24;9.85;;;8.40;;
17504;SDS011;8870;50.950;11.762;2024-02-26T12:05:56;11.07;;;8.95;;
17504;SDS011;8870;50.950;11.762;2024-02-26T12:11:16;9.48;;;8.50;;
17504;SDS011;8870;50.950;11.762;2024-02-26T12:16:49;8.73;;;7.82;;
17504;SDS011;8870;50.950;11.762;2024-02-26T12:22:09;9.20;;;7.55;;
17504;SDS011;8870;50.950;11.762;2024-02-26T12:27:46;8.50;;;7.55;;
17504;SDS011;8870;50.950;11.762;2024-02-26T12:33:06;9.05;;;8.10;;
17504;SDS011;8870;50.950;11.762;2024-02-26T12:38:38;10.65;;;7.68;;
17504;SDS011;8870;50.950;11.762;2024-02-26T12:43:58;9.88;;;7.40;;
17504;SDS011;8870;50.950;11.762;2024-02-26T12:49:31;9.38;;;7.28;;
17504;SDS011;8870;50.950;11.762;2024-02-26T12:55:02;7.80;;;6.80;;
17504;SDS011;8870;50.950;11.762;2024-02-26T13:00:25;11.05;;;7.22;;
17504;SDS011;8870;50.950;11.762;2024-02-26T13:05:57;8.27;;;6.95;;
17504;SDS011;8870;50.950;11.762;2024-02-26T13:11:16;8.30;;;6.53;;
17504;SDS011;8870;50.950;11.762;2024-02-26T13:16:56;8.55;;;6.70;;
17504;SDS011;8870;50.950;11.762;2024-02-26T13:22:15;7.10;;;6.38;;
17504;SDS011;8870;50.950;11.762;2024-02-26T13:27:47;6.78;;;5.90;;
17504;SDS011;8870;50.950;11.762;2024-02-26T13:33:11;9.75;;;5.55;;
17504;SDS011;8870;50.950;11.762;2024-02-26T13:38:50;7.20;;;5.63;;
17504;SDS011;8870;50.950;11.762;2024-02-26T13:44:09;8.93;;;5.63;;
17504;SDS011;8870;50.950;11.762;2024-02-26T13:49:42;6.55;;;5.55;;
17504;SDS011;8870;50.950;11.762;2024-02-26T13:55:14;6.72;;;5.60;;
17504;SDS011;8870;50.950;11.762;2024-02-26T14:00:32;6.95;;;6.15;;
17504;SDS011;8870;50.950;11.762;2024-02-26T14:06:06;9.25;;;6.00;;
17504;SDS011;8870;50.950;11.762;2024-02-26T14:11:24;6.80;;;5.70;;
17504;SDS011;8870;50.950;11.762;2024-02-26T14:16:56;6.28;;;5.13;;
17504;SDS011;8870;50.950;11.762;2024-02-26T14:22:16;8.65;;;5.40;;
17504;SDS011;8870;50.950;11.762;2024-02-26T14:27:48;7.10;;;5.50;;
17504;SDS011;8870;50.950;11.762;2024-02-26T14:33:06;6.07;;;5.30;;
17504;SDS011;8870;50.950;11.762;2024-02-26T14:38:39;6.40;;;5.80;;
17504;SDS011;8870;50.950;11.762;2024-02-26T14:43:58;9.38;;;6.00;;
17504;SDS011;8870;50.950;11.762;2024-02-26T14:49:29;6.57;;;5.47;;
17504;SDS011;8870;50.950;11.762;2024-02-26T14:54:50;8.43;;;5.13;;
17504;SDS011;8870;50.950;11.762;2024-02-26T15:00:21;7.85;;;5.13;;
17504;SDS011;8870;50.950;11.762;2024-02-26T15:05:39;6.50;;;5.25;;
17504;SDS011;8870;50.950;11.762;2024-02-26T15:11:12;7.32;;;5.40;;
17504;SDS011;8870;50.950;11.762;2024-02-26T15:16:31;7.85;;;5.35;;
17504;SDS011;8870;50.950;11.762;2024-02-26T15:22:02;7.50;;;5.13;;
17504;SDS011;8870;50.950;11.762;2024-02-26T15:27:23;6.57;;;5.25;;
17504;SDS011;8870;50.950;11.762;2024-02-26T15:32:42;7.68;;;4.80;;
17504;SDS011;8870;50.950;11.762;2024-02-26T15:38:13;5.80;;;4.82;;
17504;SDS011;8870;50.950;11.762;2024-02-26T15:43:34;6.82;;;4.60;;
17504;SDS011;8870;50.950;11.762;2024-02-26T15:49:05;5.47;;;4.72;;
17504;SDS011;8870;50.950;11.762;2024-02-26T15:54:37;6.07;;;4.90;;
17504;SDS011;8870;50.950;11.762;2024-02-26T15:59:59;7.95;;;5.35;;
17504;SDS011;8870;50.950;11.762;2024-02-26T16:05:32;8.80;;;5.05;;
17504;SDS011;8870;50.950;11.762;2024-02-26T16:10:50;7.53;;;4.90;;
17504;SDS011;8870;50.950;11.762;2024-02-26T16:16:24;6.32;;;4.95;;
17504;SDS011;8870;50.950;11.762;2024-02-26T16:21:46;5.63;;;5.03;;
17504;SDS011;8870;50.950;11.762;2024-02-26T16:27:18;7.57;;;4.90;;
17504;SDS011;8870;50.950;11.762;2024-02-26T16:32:40;6.57;;;4.68;;
17504;SDS011;8870;50.950;11.762;2024-02-26T16:38:11;6.40;;;4.90;;
17504;SDS011;8870;50.950;11.762;2024-02-26T16:43:29;6.85;;;5.07;;
17504;SDS011;8870;50.950;11.762;2024-02-26T16:49:02;8.43;;;6.10;;
17504;SDS011;8870;50.950;11.762;2024-02-26T16:54:34;8.25;;;4.93;;
17504;SDS011;8870;50.950;11.762;2024-02-26T16:59:52;7.13;;;4.72;;
17504;SDS011;8870;50.950;11.762;2024-02-26T17:05:27;6.45;;;4.50;;
17504;SDS011;8870;50.950;11.762;2024-02-26T17:10:46;7.05;;;4.90;;
17504;SDS011;8870;50.950;11.762;2024-02-26T17:16:18;5.40;;;4.25;;
17504;SDS011;8870;50.950;11.762;2024-02-26T17:21:39;6.53;;;4.50;;
17504;SDS011;8870;50.950;11.762;2024-02-26T17:27:10;5.85;;;4.32;;
17504;SDS011;8870;50.950;11.762;2024-02-26T17:32:28;6.97;;;4.45;;
17504;SDS011;8870;50.950;11.762;2024-02-26T17:38:05;5.75;;;4.05;;
17504;SDS011;8870;50.950;11.762;2024-02-26T17:43:23;6.32;;;4.43;;
17504;SDS011;8870;50.950;11.762;2024-02-26T17:48:54;6.15;;;3.88;;
17504;SDS011;8870;50.950;11.762;2024-02-26T17:54:27;4.43;;;3.67;;
17504;SDS011;8870;50.950;11.762;2024-02-26T17:59:46;5.43;;;3.70;;
17504;SDS011;8870;50.950;11.762;2024-02-26T18:05:17;8.52;;;3.45;;
17504;SDS011;8870;50.950;11.762;2024-02-26T18:10:38;6.00;;;3.83;;
17504;SDS011;8870;50.950;11.762;2024-02-26T18:16:10;4.88;;;3.60;;
17504;SDS011;8870;50.950;11.762;2024-02-26T18:21:29;4.22;;;3.47;;
17504;SDS011;8870;50.950;11.762;2024-02-26T18:27:03;5.40;;;4.05;;
17504;SDS011;8870;50.950;11.762;2024-02-26T18:32:21;8.80;;;5.75;;
17504;SDS011;8870;50.950;11.762;2024-02-26T18:37:52;6.35;;;4.20;;
17504;SDS011;8870;50.950;11.762;2024-02-26T18:43:14;7.18;;;4.53;;
17504;SDS011;8870;50.950;11.762;2024-02-26T18:48:45;6.85;;;5.00;;
17504;SDS011;8870;50.950;11.762;2024-02-26T18:54:04;8.90;;;5.10;;
17504;SDS011;8870;50.950;11.762;2024-02-26T18:59:39;7.57;;;5.18;;
17504;SDS011;8870;50.950;11.762;2024-02-26T19:04:58;6.60;;;5.28;;
17504;SDS011;8870;50.950;11.762;2024-02-26T19:10:29;9.07;;;5.70;;
17504;SDS011;8870;50.950;11.762;2024-02-26T19:15:51;8.20;;;6.45;;
17504;SDS011;8870;50.950;11.762;2024-02-26T19:21:22;7.72;;;6.30;;
17504;SDS011;8870;50.950;11.762;2024-02-26T19:26:40;8.50;;;6.50;;
17504;SDS011;8870;50.950;11.762;2024-02-26T19:32:14;9.48;;;6.45;;
17504;SDS011;8870;50.950;11.762;2024-02-26T19:37:32;9.02;;;6.80;;
17504;SDS011;8870;50.950;11.762;2024-02-26T19:43:04;8.75;;;6.80;;
17504;SDS011;8870;50.950;11.762;2024-02-26T19:48:32;8.25;;;6.70;;
17504;SDS011;8870;50.950;11.762;2024-02-26T19:54:03;9.77;;;7.57;;
17504;SDS011;8870;50.950;11.762;2024-02-26T19:59:21;12.00;;;7.32;;
17504;SDS011;8870;50.950;11.762;2024-02-26T20:04:55;10.30;;;7.20;;
17504;SDS011;8870;50.950;11.762;2024-02-26T20:10:13;9.38;;;7.47;;
17504;SDS011;8870;50.950;11.762;2024-02-26T20:15:45;9.57;;;7.15;;
17504;SDS011;8870;50.950;11.762;2024-02-26T20:21:06;7.82;;;6.90;;
17504;SDS011;8870;50.950;11.762;2024-02-26T20:26:37;7.18;;;6.47;;
17504;SDS011;8870;50.950;11.762;2024-02-26T20:31:58;7.63;;;6.43;;
17504;SDS011;8870;50.950;11.762;2024-02-26T20:37:32;9.02;;;6.18;;
17504;SDS011;8870;50.950;11.762;2024-02-26T20:42:51;8.80;;;5.93;;
17504;SDS011;8870;50.950;11.762;2024-02-26T20:48:23;7.85;;;5.70;;
17504;SDS011;8870;50.950;11.762;2024-02-26T20:53:44;8.80;;;5.72;;
17504;SDS011;8870;50.950;11.762;2024-02-26T20:59:18;6.13;;;5.53;;
17504;SDS011;8870;50.950;11.762;2024-02-26T21:04:36;8.13;;;5.82;;
17504;SDS011;8870;50.950;11.762;2024-02-26T21:10:12;7.60;;;5.70;;
17504;SDS011;8870;50.950;11.762;2024-02-26T21:15:30;6.95;;;6.00;;
17504;SDS011;8870;50.950;11.762;2024-02-26T21:21:02;7.25;;;5.45;;
17504;SDS011;8870;50.950;11.762;2024-02-26T21:26:24;7.38;;;5.80;;
17504;SDS011;8870;50.950;11.762;2024-02-26T21:31:56;9.32;;;5.82;;
17504;SDS011;8870;50.950;11.762;2024-02-26T21:37:14;8.20;;;6.28;;
17504;SDS011;8870;50.950;11.762;2024-02-26T21:42:48;6.85;;;5.75;;
17504;SDS011;8870;50.950;11.762;2024-02-26T21:48:06;8.27;;;5.18;;
17504;SDS011;8870;50.950;11.762;2024-02-26T21:53:38;6.00;;;5.20;;
17504;SDS011;8870;50.950;11.762;2024-02-26T21:59:00;7.05;;;5.10;;
17504;SDS011;8870;50.950;11.762;2024-02-26T22:04:31;7.13;;;5.13;;
17504;SDS011;8870;50.950;11.762;2024-02-26T22:09:49;6.90;;;5.30;;
17504;SDS011;8870;50.950;11.762;2024-02-26T22:15:23;7.28;;;5.72;;
17504;SDS011;8870;50.950;11.762;2024-02-26T22:20:41;6.22;;;5.32;;
17504;SDS011;8870;50.950;11.762;2024-02-26T22:26:16;6.65;;;5.65;;
17504;SDS011;8870;50.950;11.762;2024-02-26T22:31:37;7.32;;;5.80;;
17504;SDS011;8870;50.950;11.762;2024-02-26T22:37:10;8.63;;;6.40;;
17504;SDS011;8870;50.950;11.762;2024-02-26T22:42:30;8.70;;;6.55;;
17504;SDS011;8870;50.950;11.762;2024-02-26T22:48:04;8.75;;;7.32;;
17504;SDS011;8870;50.950;11.762;2024-02-26T22:53:36;8.68;;;7.63;;
17504;SDS011;8870;50.950;11.762;2024-02-26T22:58:55;9.40;;;7.70;;
17504;SDS011;8870;50.950;11.762;2024-02-26T23:04:30;10.23;;;7.72;;
17504;SDS011;8870;50.950;11.762;2024-02-26T23:09:48;9.27;;;7.65;;
17504;SDS011;8870;50.950;11.762;2024-02-26T23:15:20;8.63;;;7.45;;
17504;SDS011;8870;50.950;11.762;2024-02-26T23:20:56;9.02;;;7.95;;
17504;SDS011;8870;50.950;11.762;2024-02-26T23:26:15;9.82;;;8.38;;
17504;SDS011;8870;50.950;11.762;2024-02-26T23:31:46;10.40;;;8.70;;
17504;SDS011;8870;50.950;11.762;2024-02-26T23:37:07;8.80;;;7.90;;
17504;SDS011;8870;50.950;11.762;2024-02-26T23:42:38;9.25;;;8.27;;
17504;SDS011;8870;50.950;11.762;2024-02-26T23:48:03;9.63;;;8.63;;
17504;SDS011;8870;50.950;11.762;2024-02-26T23:53:39;11.25;;;9.30;;
17504;SDS011;8870;50.950;11.762;2024-02-26T23:58:57;10.75;;;8.68;;
